sensor_id;sensor_type;location;lat;lon;timestamp;P1;durP1;ratioP1;P2;durP2;ratioP2
64500;SDS011;50874;24.150;-110.320;2023-07-08T00:01:12;12.57;;;3.45;;
64500;SDS011;50874;24.150;-110.320;2023-07-08T00:03:40;13.80;;;4.13;;
64500;SDS011;50874;24.150;-110.320;2023-07-08T00:06:17;13.80;;;3.40;;
64500;SDS011;50874;24.150;-110.320;2023-07-08T00:08:46;21.45;;;4.25;;
64500;SDS011;50874;24.150;-110.320;2023-07-08T00:11:13;16.35;;;3.85;;
64500;SDS011;50874;24.150;-110.320;2023-07-08T00:13:40;16.08;;;4.03;;
64500;SDS011;50874;24.150;-110.320;2023-07-08T00:16:08;12.30;;;3.58;;
64500;SDS011;50874;24.150;-110.320;2023-07-08T00:18:37;12.88;;;4.05;;
64500;SDS011;50874;24.150;-110.320;2023-07-08T00:21:06;12.00;;;3.63;;
64500;SDS011;50874;24.150;-110.320;2023-07-08T00:23:44;14.13;;;4.55;;
64500;SDS011;50874;24.150;-110.320;2023-07-08T00:26:25;18.38;;;4.68;;
64500;SDS011;50874;24.150;-110.320;2023-07-08T00:28:53;23.92;;;4.60;;
64500;SDS011;50874;24.150;-110.320;2023-07-08T00:31:21;9.60;;;3.47;;
64500;SDS011;50874;24.150;-110.320;2023-07-08T00:33:49;11.40;;;3.60;;
64500;SDS011;50874;24.150;-110.320;2023-07-08T00:36:16;12.13;;;3.55;;
64500;SDS011;50874;24.150;-110.320;2023-07-08T00:38:43;13.40;;;4.38;;
64500;SDS011;50874;24.150;-110.320;2023-07-08T00:43:39;10.00;;;3.33;;
64500;SDS011;50874;24.150;-110.320;2023-07-08T00:46:15;14.40;;;4.00;;
64500;SDS011;50874;24.150;-110.320;2023-07-08T00:48:49;23.38;;;3.75;;
64500;SDS011;50874;24.150;-110.320;2023-07-08T00:51:19;21.33;;;4.38;;
64500;SDS011;50874;24.150;-110.320;2023-07-08T00:53:47;14.32;;;3.88;;
64500;SDS011;50874;24.150;-110.320;2023-07-08T00:56:21;17.30;;;4.35;;
64500;SDS011;50874;24.150;-110.320;2023-07-08T00:59:00;13.60;;;3.83;;
64500;SDS011;50874;24.150;-110.320;2023-07-08T01:01:29;12.82;;;3.28;;
64500;SDS011;50874;24.150;-110.320;2023-07-08T01:04:06;16.33;;;3.90;;
64500;SDS011;50874;24.150;-110.320;2023-07-08T01:06:45;15.15;;;3.47;;
64500;SDS011;50874;24.150;-110.320;2023-07-08T01:09:22;11.45;;;3.88;;
64500;SDS011;50874;24.150;-110.320;2023-07-08T01:11:54;19.05;;;4.57;;
64500;SDS011;50874;24.150;-110.320;2023-07-08T01:14:22;17.83;;;4.75;;
64500;SDS011;50874;24.150;-110.320;2023-07-08T01:16:52;10.68;;;3.80;;
64500;SDS011;50874;24.150;-110.320;2023-07-08T01:19:20;18.48;;;4.28;;
64500;SDS011;50874;24.150;-110.320;2023-07-08T01:24:31;14.77;;;3.90;;
64500;SDS011;50874;24.150;-110.320;2023-07-08T01:27:00;17.85;;;4.53;;
64500;SDS011;50874;24.150;-110.320;2023-07-08T01:29:29;12.90;;;4.25;;
64500;SDS011;50874;24.150;-110.320;2023-07-08T01:31:59;18.63;;;4.20;;
64500;SDS011;50874;24.150;-110.320;2023-07-08T01:34:33;8.85;;;2.90;;
64500;SDS011;50874;24.150;-110.320;2023-07-08T01:37:04;21.25;;;4.50;;
64500;SDS011;50874;24.150;-110.320;2023-07-08T01:39:32;12.00;;;3.90;;
64500;SDS011;50874;24.150;-110.320;2023-07-08T01:41:59;20.95;;;3.55;;
64500;SDS011;50874;24.150;-110.320;2023-07-08T01:44:29;12.10;;;3.60;;
64500;SDS011;50874;24.150;-110.320;2023-07-08T01:47:01;8.90;;;3.20;;
64500;SDS011;50874;24.150;-110.320;2023-07-08T01:49:43;13.52;;;3.53;;
64500;SDS011;50874;24.150;-110.320;2023-07-08T01:52:13;14.93;;;4.30;;
64500;SDS011;50874;24.150;-110.320;2023-07-08T01:54:42;21.80;;;3.90;;
64500;SDS011;50874;24.150;-110.320;2023-07-08T01:57:09;12.65;;;3.70;;
64500;SDS011;50874;24.150;-110.320;2023-07-08T01:59:35;17.77;;;3.95;;
64500;SDS011;50874;24.150;-110.320;2023-07-08T02:02:01;15.70;;;3.58;;
64500;SDS011;50874;24.150;-110.320;2023-07-08T02:04:29;13.52;;;3.58;;
64500;SDS011;50874;24.150;-110.320;2023-07-08T02:06:59;16.95;;;4.22;;
64500;SDS011;50874;24.150;-110.320;2023-07-08T02:09:26;15.38;;;3.72;;
64500;SDS011;50874;24.150;-110.320;2023-07-08T02:11:53;12.38;;;3.65;;
64500;SDS011;50874;24.150;-110.320;2023-07-08T02:14:20;18.63;;;3.88;;
64500;SDS011;50874;24.150;-110.320;2023-07-08T02:16:46;19.98;;;4.00;;
64500;SDS011;50874;24.150;-110.320;2023-07-08T02:19:13;16.65;;;3.78;;
64500;SDS011;50874;24.150;-110.320;2023-07-08T02:21:40;11.30;;;4.10;;
64500;SDS011;50874;24.150;-110.320;2023-07-08T02:24:06;9.70;;;3.28;;
64500;SDS011;50874;24.150;-110.320;2023-07-08T02:26:34;11.93;;;3.55;;
64500;SDS011;50874;24.150;-110.320;2023-07-08T02:29:00;12.13;;;3.65;;
64500;SDS011;50874;24.150;-110.320;2023-07-08T02:31:27;12.73;;;3.65;;
64500;SDS011;50874;24.150;-110.320;2023-07-08T02:33:54;14.50;;;3.67;;
64500;SDS011;50874;24.150;-110.320;2023-07-08T02:36:20;12.93;;;3.35;;
64500;SDS011;50874;24.150;-110.320;2023-07-08T02:38:47;10.48;;;3.28;;
64500;SDS011;50874;24.150;-110.320;2023-07-08T02:41:14;16.73;;;3.50;;
64500;SDS011;50874;24.150;-110.320;2023-07-08T02:43:40;15.18;;;3.92;;
64500;SDS011;50874;24.150;-110.320;2023-07-08T02:46:07;13.80;;;3.80;;
64500;SDS011;50874;24.150;-110.320;2023-07-08T02:48:33;11.75;;;3.10;;
64500;SDS011;50874;24.150;-110.320;2023-07-08T02:51:00;15.95;;;3.63;;
64500;SDS011;50874;24.150;-110.320;2023-07-08T02:53:28;9.15;;;3.58;;
64500;SDS011;50874;24.150;-110.320;2023-07-08T02:55:54;9.50;;;3.28;;
64500;SDS011;50874;24.150;-110.320;2023-07-08T02:58:21;10.80;;;3.08;;
64500;SDS011;50874;24.150;-110.320;2023-07-08T03:00:51;15.73;;;4.45;;
64500;SDS011;50874;24.150;-110.320;2023-07-08T03:03:19;9.05;;;3.67;;
64500;SDS011;50874;24.150;-110.320;2023-07-08T03:05:53;11.15;;;3.90;;
64500;SDS011;50874;24.150;-110.320;2023-07-08T03:08:30;12.82;;;3.33;;
64500;SDS011;50874;24.150;-110.320;2023-07-08T03:11:01;14.75;;;3.63;;
64500;SDS011;50874;24.150;-110.320;2023-07-08T03:13:29;16.38;;;4.32;;
64500;SDS011;50874;24.150;-110.320;2023-07-08T03:15:57;15.38;;;4.03;;
64500;SDS011;50874;24.150;-110.320;2023-07-08T03:18:25;14.50;;;4.00;;
64500;SDS011;50874;24.150;-110.320;2023-07-08T03:20:52;13.18;;;3.80;;
64500;SDS011;50874;24.150;-110.320;2023-07-08T03:23:21;11.80;;;3.83;;
64500;SDS011;50874;24.150;-110.320;2023-07-08T03:25:49;16.00;;;4.00;;
64500;SDS011;50874;24.150;-110.320;2023-07-08T03:28:16;13.90;;;4.32;;
64500;SDS011;50874;24.150;-110.320;2023-07-08T03:30:42;10.73;;;3.33;;
64500;SDS011;50874;24.150;-110.320;2023-07-08T03:33:10;12.77;;;4.32;;
64500;SDS011;50874;24.150;-110.320;2023-07-08T03:35:37;15.07;;;3.67;;
64500;SDS011;50874;24.150;-110.320;2023-07-08T03:38:04;16.23;;;4.50;;
64500;SDS011;50874;24.150;-110.320;2023-07-08T03:40:31;15.32;;;3.55;;
64500;SDS011;50874;24.150;-110.320;2023-07-08T03:42:57;17.00;;;4.18;;
64500;SDS011;50874;24.150;-110.320;2023-07-08T03:45:25;14.68;;;4.60;;
64500;SDS011;50874;24.150;-110.320;2023-07-08T03:47:51;12.32;;;4.45;;
64500;SDS011;50874;24.150;-110.320;2023-07-08T03:50:19;18.13;;;3.97;;
64500;SDS011;50874;24.150;-110.320;2023-07-08T03:52:48;14.25;;;5.30;;
64500;SDS011;50874;24.150;-110.320;2023-07-08T03:55:16;21.33;;;5.07;;
64500;SDS011;50874;24.150;-110.320;2023-07-08T03:57:42;18.73;;;4.43;;
64500;SDS011;50874;24.150;-110.320;2023-07-08T04:00:09;22.80;;;4.13;;
64500;SDS011;50874;24.150;-110.320;2023-07-08T04:02:40;17.88;;;3.97;;
64500;SDS011;50874;24.150;-110.320;2023-07-08T04:05:10;11.63;;;4.38;;
64500;SDS011;50874;24.150;-110.320;2023-07-08T04:07:40;24.17;;;5.28;;
64500;SDS011;50874;24.150;-110.320;2023-07-08T04:10:07;16.48;;;5.47;;
64500;SDS011;50874;24.150;-110.320;2023-07-08T04:12:34;15.00;;;4.75;;
64500;SDS011;50874;24.150;-110.320;2023-07-08T04:15:02;14.30;;;3.83;;
64500;SDS011;50874;24.150;-110.320;2023-07-08T04:17:29;14.38;;;4.22;;
64500;SDS011;50874;24.150;-110.320;2023-07-08T04:19:55;12.27;;;4.20;;
64500;SDS011;50874;24.150;-110.320;2023-07-08T04:22:22;15.20;;;5.05;;
64500;SDS011;50874;24.150;-110.320;2023-07-08T04:24:49;23.75;;;5.25;;
64500;SDS011;50874;24.150;-110.320;2023-07-08T04:27:16;12.32;;;4.63;;
64500;SDS011;50874;24.150;-110.320;2023-07-08T04:29:43;17.20;;;4.97;;
64500;SDS011;50874;24.150;-110.320;2023-07-08T04:32:10;21.45;;;4.97;;
64500;SDS011;50874;24.150;-110.320;2023-07-08T04:34:36;22.02;;;5.00;;
64500;SDS011;50874;24.150;-110.320;2023-07-08T04:37:03;17.25;;;5.10;;
64500;SDS011;50874;24.150;-110.320;2023-07-08T04:39:32;19.52;;;5.25;;
64500;SDS011;50874;24.150;-110.320;2023-07-08T04:41:59;14.10;;;4.63;;
64500;SDS011;50874;24.150;-110.320;2023-07-08T04:44:25;21.08;;;5.13;;
64500;SDS011;50874;24.150;-110.320;2023-07-08T04:46:53;20.13;;;5.70;;
64500;SDS011;50874;24.150;-110.320;2023-07-08T04:49:22;15.35;;;5.18;;
64500;SDS011;50874;24.150;-110.320;2023-07-08T04:51:50;18.10;;;4.80;;
64500;SDS011;50874;24.150;-110.320;2023-07-08T04:54:17;20.92;;;5.55;;
64500;SDS011;50874;24.150;-110.320;2023-07-08T04:56:45;18.90;;;5.68;;
64500;SDS011;50874;24.150;-110.320;2023-07-08T04:59:14;18.20;;;5.15;;
64500;SDS011;50874;24.150;-110.320;2023-07-08T05:01:43;16.92;;;4.90;;
64500;SDS011;50874;24.150;-110.320;2023-07-08T05:04:14;19.13;;;5.68;;
64500;SDS011;50874;24.150;-110.320;2023-07-08T05:06:41;17.30;;;4.60;;
64500;SDS011;50874;24.150;-110.320;2023-07-08T05:09:08;18.13;;;5.95;;
64500;SDS011;50874;24.150;-110.320;2023-07-08T05:11:35;23.27;;;6.10;;
64500;SDS011;50874;24.150;-110.320;2023-07-08T05:14:02;16.83;;;5.10;;
64500;SDS011;50874;24.150;-110.320;2023-07-08T05:16:31;14.25;;;4.80;;
64500;SDS011;50874;24.150;-110.320;2023-07-08T05:18:59;18.23;;;5.00;;
64500;SDS011;50874;24.150;-110.320;2023-07-08T05:21:26;19.83;;;5.50;;
64500;SDS011;50874;24.150;-110.320;2023-07-08T05:23:58;16.05;;;5.13;;
64500;SDS011;50874;24.150;-110.320;2023-07-08T05:26:25;16.73;;;5.13;;
64500;SDS011;50874;24.150;-110.320;2023-07-08T05:28:52;17.20;;;5.30;;
64500;SDS011;50874;24.150;-110.320;2023-07-08T05:31:18;15.45;;;5.30;;
64500;SDS011;50874;24.150;-110.320;2023-07-08T05:33:45;21.55;;;5.38;;
64500;SDS011;50874;24.150;-110.320;2023-07-08T05:36:11;20.58;;;5.80;;
64500;SDS011;50874;24.150;-110.320;2023-07-08T05:38:38;20.23;;;5.43;;
64500;SDS011;50874;24.150;-110.320;2023-07-08T05:41:04;17.70;;;5.78;;
64500;SDS011;50874;24.150;-110.320;2023-07-08T05:43:31;17.58;;;4.90;;
64500;SDS011;50874;24.150;-110.320;2023-07-08T05:46:00;28.58;;;6.18;;
64500;SDS011;50874;24.150;-110.320;2023-07-08T05:48:27;21.67;;;5.50;;
64500;SDS011;50874;24.150;-110.320;2023-07-08T05:50:55;19.15;;;5.35;;
64500;SDS011;50874;24.150;-110.320;2023-07-08T05:53:22;11.05;;;4.68;;
64500;SDS011;50874;24.150;-110.320;2023-07-08T05:55:48;16.20;;;5.47;;
64500;SDS011;50874;24.150;-110.320;2023-07-08T05:58:15;16.05;;;5.30;;
64500;SDS011;50874;24.150;-110.320;2023-07-08T06:00:42;18.35;;;6.28;;
64500;SDS011;50874;24.150;-110.320;2023-07-08T06:03:09;17.85;;;5.22;;
64500;SDS011;50874;24.150;-110.320;2023-07-08T06:05:36;16.38;;;5.75;;
64500;SDS011;50874;24.150;-110.320;2023-07-08T06:08:03;17.58;;;6.43;;
64500;SDS011;50874;24.150;-110.320;2023-07-08T06:10:32;11.30;;;5.07;;
64500;SDS011;50874;24.150;-110.320;2023-07-08T06:12:59;25.52;;;5.70;;
64500;SDS011;50874;24.150;-110.320;2023-07-08T06:15:26;18.30;;;5.07;;
64500;SDS011;50874;24.150;-110.320;2023-07-08T06:17:52;15.93;;;5.70;;
64500;SDS011;50874;24.150;-110.320;2023-07-08T06:20:19;19.27;;;5.05;;
64500;SDS011;50874;24.150;-110.320;2023-07-08T06:22:45;28.80;;;5.50;;
64500;SDS011;50874;24.150;-110.320;2023-07-08T06:25:11;22.15;;;6.00;;
64500;SDS011;50874;24.150;-110.320;2023-07-08T06:27:38;17.58;;;5.40;;
64500;SDS011;50874;24.150;-110.320;2023-07-08T06:30:05;20.33;;;5.55;;
64500;SDS011;50874;24.150;-110.320;2023-07-08T06:32:32;21.27;;;6.03;;
64500;SDS011;50874;24.150;-110.320;2023-07-08T06:34:58;16.75;;;5.10;;
64500;SDS011;50874;24.150;-110.320;2023-07-08T06:37:24;20.02;;;5.80;;
64500;SDS011;50874;24.150;-110.320;2023-07-08T06:39:51;24.15;;;6.13;;
64500;SDS011;50874;24.150;-110.320;2023-07-08T06:42:17;15.38;;;6.22;;
64500;SDS011;50874;24.150;-110.320;2023-07-08T06:44:44;21.63;;;6.60;;
64500;SDS011;50874;24.150;-110.320;2023-07-08T06:47:18;23.30;;;6.45;;
64500;SDS011;50874;24.150;-110.320;2023-07-08T06:49:48;18.67;;;5.30;;
64500;SDS011;50874;24.150;-110.320;2023-07-08T06:52:14;19.95;;;5.72;;
64500;SDS011;50874;24.150;-110.320;2023-07-08T06:54:41;22.00;;;6.25;;
64500;SDS011;50874;24.150;-110.320;2023-07-08T06:57:07;25.40;;;5.75;;
64500;SDS011;50874;24.150;-110.320;2023-07-08T06:59:34;17.45;;;6.68;;
64500;SDS011;50874;24.150;-110.320;2023-07-08T07:02:01;19.08;;;6.60;;
64500;SDS011;50874;24.150;-110.320;2023-07-08T07:04:27;21.52;;;6.43;;
64500;SDS011;50874;24.150;-110.320;2023-07-08T07:06:57;23.48;;;6.10;;
64500;SDS011;50874;24.150;-110.320;2023-07-08T07:09:24;12.73;;;5.38;;
64500;SDS011;50874;24.150;-110.320;2023-07-08T07:11:50;18.08;;;5.43;;
64500;SDS011;50874;24.150;-110.320;2023-07-08T07:14:17;22.58;;;6.95;;
64500;SDS011;50874;24.150;-110.320;2023-07-08T07:16:43;22.23;;;6.15;;
64500;SDS011;50874;24.150;-110.320;2023-07-08T07:19:09;15.25;;;5.40;;
64500;SDS011;50874;24.150;-110.320;2023-07-08T07:21:36;28.48;;;5.95;;
64500;SDS011;50874;24.150;-110.320;2023-07-08T07:24:02;17.92;;;5.00;;
64500;SDS011;50874;24.150;-110.320;2023-07-08T07:26:29;14.95;;;5.45;;
64500;SDS011;50874;24.150;-110.320;2023-07-08T07:28:55;16.98;;;5.13;;
64500;SDS011;50874;24.150;-110.320;2023-07-08T07:31:22;19.92;;;5.82;;
64500;SDS011;50874;24.150;-110.320;2023-07-08T07:33:48;22.98;;;6.13;;
64500;SDS011;50874;24.150;-110.320;2023-07-08T07:36:15;24.00;;;6.35;;
64500;SDS011;50874;24.150;-110.320;2023-07-08T07:38:41;18.73;;;5.90;;
64500;SDS011;50874;24.150;-110.320;2023-07-08T07:41:08;17.42;;;6.20;;
64500;SDS011;50874;24.150;-110.320;2023-07-08T07:43:36;16.15;;;5.40;;
64500;SDS011;50874;24.150;-110.320;2023-07-08T07:46:02;22.58;;;6.00;;
64500;SDS011;50874;24.150;-110.320;2023-07-08T07:48:31;21.77;;;6.25;;
64500;SDS011;50874;24.150;-110.320;2023-07-08T07:50:57;15.85;;;5.60;;
64500;SDS011;50874;24.150;-110.320;2023-07-08T07:53:24;19.00;;;5.40;;
64500;SDS011;50874;24.150;-110.320;2023-07-08T07:55:57;19.00;;;6.40;;
64500;SDS011;50874;24.150;-110.320;2023-07-08T07:58:25;13.75;;;5.75;;
64500;SDS011;50874;24.150;-110.320;2023-07-08T08:00:52;21.42;;;5.90;;
64500;SDS011;50874;24.150;-110.320;2023-07-08T08:03:20;19.40;;;5.72;;
64500;SDS011;50874;24.150;-110.320;2023-07-08T08:05:47;15.70;;;5.82;;
64500;SDS011;50874;24.150;-110.320;2023-07-08T08:08:13;19.55;;;6.13;;
64500;SDS011;50874;24.150;-110.320;2023-07-08T08:10:41;18.95;;;5.53;;
64500;SDS011;50874;24.150;-110.320;2023-07-08T08:13:08;25.52;;;6.35;;
64500;SDS011;50874;24.150;-110.320;2023-07-08T08:15:35;16.75;;;5.68;;
64500;SDS011;50874;24.150;-110.320;2023-07-08T08:18:02;13.70;;;5.03;;
64500;SDS011;50874;24.150;-110.320;2023-07-08T08:20:29;17.15;;;4.63;;
64500;SDS011;50874;24.150;-110.320;2023-07-08T08:22:55;15.95;;;5.85;;
64500;SDS011;50874;24.150;-110.320;2023-07-08T08:25:22;13.13;;;4.75;;
64500;SDS011;50874;24.150;-110.320;2023-07-08T08:27:50;17.33;;;5.30;;
64500;SDS011;50874;24.150;-110.320;2023-07-08T08:30:17;17.40;;;4.50;;
64500;SDS011;50874;24.150;-110.320;2023-07-08T08:32:44;12.70;;;4.30;;
64500;SDS011;50874;24.150;-110.320;2023-07-08T08:35:11;17.02;;;4.50;;
64500;SDS011;50874;24.150;-110.320;2023-07-08T08:37:37;16.85;;;4.90;;
64500;SDS011;50874;24.150;-110.320;2023-07-08T08:40:04;17.15;;;4.65;;
64500;SDS011;50874;24.150;-110.320;2023-07-08T08:42:38;12.68;;;4.60;;
64500;SDS011;50874;24.150;-110.320;2023-07-08T08:45:08;16.92;;;4.75;;
64500;SDS011;50874;24.150;-110.320;2023-07-08T08:47:41;16.42;;;4.47;;
64500;SDS011;50874;24.150;-110.320;2023-07-08T08:53:29;12.27;;;4.90;;
64500;SDS011;50874;24.150;-110.320;2023-07-08T08:55:58;13.93;;;5.00;;
64500;SDS011;50874;24.150;-110.320;2023-07-08T09:01:14;14.98;;;4.65;;
64500;SDS011;50874;24.150;-110.320;2023-07-08T09:03:46;11.32;;;4.22;;
64500;SDS011;50874;24.150;-110.320;2023-07-08T09:06:20;22.10;;;5.15;;
64500;SDS011;50874;24.150;-110.320;2023-07-08T09:08:56;14.77;;;4.78;;
64500;SDS011;50874;24.150;-110.320;2023-07-08T09:11:40;18.17;;;4.40;;
64500;SDS011;50874;24.150;-110.320;2023-07-08T09:14:44;14.88;;;4.97;;
64500;SDS011;50874;24.150;-110.320;2023-07-08T09:17:11;26.73;;;6.07;;
64500;SDS011;50874;24.150;-110.320;2023-07-08T09:22:46;20.52;;;5.68;;
64500;SDS011;50874;24.150;-110.320;2023-07-08T09:27:59;16.48;;;6.15;;
64500;SDS011;50874;24.150;-110.320;2023-07-08T09:30:26;15.93;;;5.82;;
64500;SDS011;50874;24.150;-110.320;2023-07-08T09:32:55;22.67;;;7.28;;
64500;SDS011;50874;24.150;-110.320;2023-07-08T09:35:25;17.42;;;6.20;;
64500;SDS011;50874;24.150;-110.320;2023-07-08T09:37:54;22.13;;;7.15;;
64500;SDS011;50874;24.150;-110.320;2023-07-08T09:40:33;28.92;;;7.43;;
64500;SDS011;50874;24.150;-110.320;2023-07-08T09:43:42;22.52;;;7.45;;
64500;SDS011;50874;24.150;-110.320;2023-07-08T09:45:51;25.60;;;6.90;;
64500;SDS011;50874;24.150;-110.320;2023-07-08T09:48:27;19.70;;;7.15;;
64500;SDS011;50874;24.150;-110.320;2023-07-08T09:50:58;27.80;;;7.57;;
64500;SDS011;50874;24.150;-110.320;2023-07-08T09:53:26;21.65;;;6.72;;
64500;SDS011;50874;24.150;-110.320;2023-07-08T09:55:53;21.80;;;6.85;;
64500;SDS011;50874;24.150;-110.320;2023-07-08T09:58:42;23.73;;;6.60;;
64500;SDS011;50874;24.150;-110.320;2023-07-08T10:01:13;19.58;;;7.00;;
64500;SDS011;50874;24.150;-110.320;2023-07-08T10:03:46;22.45;;;6.97;;
64500;SDS011;50874;24.150;-110.320;2023-07-08T10:06:24;29.83;;;6.97;;
64500;SDS011;50874;24.150;-110.320;2023-07-08T10:08:55;26.48;;;7.10;;
64500;SDS011;50874;24.150;-110.320;2023-07-08T10:11:32;23.98;;;7.47;;
64500;SDS011;50874;24.150;-110.320;2023-07-08T10:14:14;22.45;;;6.10;;
64500;SDS011;50874;24.150;-110.320;2023-07-08T10:16:43;20.65;;;6.22;;
64500;SDS011;50874;24.150;-110.320;2023-07-08T10:19:16;26.48;;;8.57;;
64500;SDS011;50874;24.150;-110.320;2023-07-08T10:21:51;16.80;;;6.80;;
64500;SDS011;50874;24.150;-110.320;2023-07-08T10:30:26;27.85;;;6.78;;
64500;SDS011;50874;24.150;-110.320;2023-07-08T10:38:32;21.95;;;6.43;;
64500;SDS011;50874;24.150;-110.320;2023-07-08T10:44:36;22.08;;;7.07;;
64500;SDS011;50874;24.150;-110.320;2023-07-08T11:06:44;24.10;;;6.45;;
64500;SDS011;50874;24.150;-110.320;2023-07-08T11:08:55;20.75;;;6.88;;
64500;SDS011;50874;24.150;-110.320;2023-07-08T11:16:52;16.52;;;5.70;;
64500;SDS011;50874;24.150;-110.320;2023-07-08T11:19:48;16.95;;;6.40;;
64500;SDS011;50874;24.150;-110.320;2023-07-08T11:22:31;14.70;;;6.25;;
64500;SDS011;50874;24.150;-110.320;2023-07-08T11:24:58;19.48;;;5.93;;
64500;SDS011;50874;24.150;-110.320;2023-07-08T11:27:34;31.58;;;6.55;;
64500;SDS011;50874;24.150;-110.320;2023-07-08T11:30:06;27.20;;;6.28;;
64500;SDS011;50874;24.150;-110.320;2023-07-08T11:32:40;19.00;;;5.85;;
64500;SDS011;50874;24.150;-110.320;2023-07-08T11:35:18;21.63;;;6.28;;
64500;SDS011;50874;24.150;-110.320;2023-07-08T11:37:49;16.15;;;5.95;;
64500;SDS011;50874;24.150;-110.320;2023-07-08T11:40:20;16.63;;;5.68;;
64500;SDS011;50874;24.150;-110.320;2023-07-08T11:42:48;21.23;;;4.45;;
64500;SDS011;50874;24.150;-110.320;2023-07-08T11:45:27;12.23;;;4.50;;
64500;SDS011;50874;24.150;-110.320;2023-07-08T11:48:21;11.15;;;5.20;;
64500;SDS011;50874;24.150;-110.320;2023-07-08T11:50:57;16.40;;;4.07;;
64500;SDS011;50874;24.150;-110.320;2023-07-08T12:09:00;13.75;;;4.03;;
64500;SDS011;50874;24.150;-110.320;2023-07-08T12:11:43;9.88;;;4.13;;
64500;SDS011;50874;24.150;-110.320;2023-07-08T12:14:11;9.82;;;3.45;;
64500;SDS011;50874;24.150;-110.320;2023-07-08T12:16:39;14.57;;;3.92;;
64500;SDS011;50874;24.150;-110.320;2023-07-08T12:19:09;10.45;;;3.25;;
64500;SDS011;50874;24.150;-110.320;2023-07-08T12:21:41;12.68;;;4.20;;
64500;SDS011;50874;24.150;-110.320;2023-07-08T12:24:10;12.27;;;3.95;;
64500;SDS011;50874;24.150;-110.320;2023-07-08T12:26:38;7.93;;;3.47;;
64500;SDS011;50874;24.150;-110.320;2023-07-08T12:29:05;13.00;;;4.38;;
64500;SDS011;50874;24.150;-110.320;2023-07-08T12:31:33;13.88;;;3.72;;
64500;SDS011;50874;24.150;-110.320;2023-07-08T12:34:14;7.47;;;3.25;;
64500;SDS011;50874;24.150;-110.320;2023-07-08T12:36:42;12.90;;;4.20;;
64500;SDS011;50874;24.150;-110.320;2023-07-08T12:39:11;8.60;;;4.28;;
64500;SDS011;50874;24.150;-110.320;2023-07-08T12:41:41;11.00;;;3.97;;
64500;SDS011;50874;24.150;-110.320;2023-07-08T12:44:18;10.52;;;4.03;;
64500;SDS011;50874;24.150;-110.320;2023-07-08T12:46:49;11.80;;;3.75;;
64500;SDS011;50874;24.150;-110.320;2023-07-08T12:49:19;14.95;;;3.95;;
64500;SDS011;50874;24.150;-110.320;2023-07-08T12:51:47;10.43;;;3.75;;
64500;SDS011;50874;24.150;-110.320;2023-07-08T12:54:14;14.35;;;3.90;;
64500;SDS011;50874;24.150;-110.320;2023-07-08T12:56:43;11.15;;;3.65;;
64500;SDS011;50874;24.150;-110.320;2023-07-08T12:59:17;11.30;;;3.55;;
64500;SDS011;50874;24.150;-110.320;2023-07-08T13:01:46;10.60;;;3.50;;
64500;SDS011;50874;24.150;-110.320;2023-07-08T13:04:14;10.05;;;3.17;;
64500;SDS011;50874;24.150;-110.320;2023-07-08T13:06:42;16.33;;;3.55;;
64500;SDS011;50874;24.150;-110.320;2023-07-08T13:12:05;22.05;;;4.43;;
64500;SDS011;50874;24.150;-110.320;2023-07-08T13:14:47;13.48;;;3.70;;
64500;SDS011;50874;24.150;-110.320;2023-07-08T13:17:15;10.45;;;3.10;;
64500;SDS011;50874;24.150;-110.320;2023-07-08T13:19:42;11.45;;;3.30;;
64500;SDS011;50874;24.150;-110.320;2023-07-08T13:22:12;12.90;;;4.10;;
64500;SDS011;50874;24.150;-110.320;2023-07-08T13:24:47;15.77;;;3.92;;
64500;SDS011;50874;24.150;-110.320;2023-07-08T13:27:18;12.20;;;4.28;;
64500;SDS011;50874;24.150;-110.320;2023-07-08T13:29:47;9.88;;;4.15;;
64500;SDS011;50874;24.150;-110.320;2023-07-08T13:32:16;8.65;;;3.63;;
64500;SDS011;50874;24.150;-110.320;2023-07-08T13:34:43;22.08;;;4.72;;
64500;SDS011;50874;24.150;-110.320;2023-07-08T13:37:12;11.80;;;3.45;;
64500;SDS011;50874;24.150;-110.320;2023-07-08T13:39:42;12.98;;;3.95;;
64500;SDS011;50874;24.150;-110.320;2023-07-08T13:42:09;10.38;;;3.63;;
64500;SDS011;50874;24.150;-110.320;2023-07-08T13:44:43;19.88;;;4.45;;
64500;SDS011;50874;24.150;-110.320;2023-07-08T13:47:21;15.55;;;4.07;;
64500;SDS011;50874;24.150;-110.320;2023-07-08T13:49:59;11.88;;;3.35;;
64500;SDS011;50874;24.150;-110.320;2023-07-08T13:52:32;9.18;;;3.33;;
64500;SDS011;50874;24.150;-110.320;2023-07-08T13:55:00;10.50;;;3.50;;
64500;SDS011;50874;24.150;-110.320;2023-07-08T13:57:31;9.57;;;3.88;;
64500;SDS011;50874;24.150;-110.320;2023-07-08T13:59:59;9.43;;;3.35;;
64500;SDS011;50874;24.150;-110.320;2023-07-08T14:02:29;11.73;;;3.67;;
64500;SDS011;50874;24.150;-110.320;2023-07-08T14:04:56;9.65;;;3.35;;
64500;SDS011;50874;24.150;-110.320;2023-07-08T14:07:26;14.15;;;4.00;;
64500;SDS011;50874;24.150;-110.320;2023-07-08T14:09:54;9.30;;;2.88;;
64500;SDS011;50874;24.150;-110.320;2023-07-08T14:12:21;11.95;;;3.22;;
64500;SDS011;50874;24.150;-110.320;2023-07-08T14:14:48;9.65;;;3.05;;
64500;SDS011;50874;24.150;-110.320;2023-07-08T14:17:19;9.60;;;2.80;;
64500;SDS011;50874;24.150;-110.320;2023-07-08T14:19:50;11.55;;;3.38;;
64500;SDS011;50874;24.150;-110.320;2023-07-08T14:22:23;11.52;;;3.33;;
64500;SDS011;50874;24.150;-110.320;2023-07-08T14:24:51;15.45;;;3.95;;
64500;SDS011;50874;24.150;-110.320;2023-07-08T14:27:18;11.85;;;3.42;;
64500;SDS011;50874;24.150;-110.320;2023-07-08T14:29:49;10.38;;;3.38;;
64500;SDS011;50874;24.150;-110.320;2023-07-08T14:34:55;10.85;;;3.63;;
64500;SDS011;50874;24.150;-110.320;2023-07-08T14:37:33;10.30;;;3.60;;
64500;SDS011;50874;24.150;-110.320;2023-07-08T14:40:05;10.15;;;3.47;;
64500;SDS011;50874;24.150;-110.320;2023-07-08T14:42:41;12.02;;;3.30;;
64500;SDS011;50874;24.150;-110.320;2023-07-08T14:45:07;9.50;;;3.00;;
64500;SDS011;50874;24.150;-110.320;2023-07-08T14:47:34;13.05;;;4.47;;
64500;SDS011;50874;24.150;-110.320;2023-07-08T14:50:03;13.93;;;3.70;;
64500;SDS011;50874;24.150;-110.320;2023-07-08T14:52:41;16.85;;;4.07;;
64500;SDS011;50874;24.150;-110.320;2023-07-08T14:55:08;12.65;;;4.40;;
64500;SDS011;50874;24.150;-110.320;2023-07-08T14:57:40;8.60;;;3.20;;
64500;SDS011;50874;24.150;-110.320;2023-07-08T15:00:14;11.07;;;2.90;;
64500;SDS011;50874;24.150;-110.320;2023-07-08T15:02:43;10.38;;;3.42;;
64500;SDS011;50874;24.150;-110.320;2023-07-08T15:05:14;12.02;;;3.33;;
64500;SDS011;50874;24.150;-110.320;2023-07-08T15:07:43;13.13;;;3.55;;
64500;SDS011;50874;24.150;-110.320;2023-07-08T15:10:11;12.23;;;3.10;;
64500;SDS011;50874;24.150;-110.320;2023-07-08T15:12:38;11.13;;;3.30;;
64500;SDS011;50874;24.150;-110.320;2023-07-08T15:15:04;8.55;;;2.88;;
64500;SDS011;50874;24.150;-110.320;2023-07-08T15:17:39;12.82;;;3.20;;
64500;SDS011;50874;24.150;-110.320;2023-07-08T15:20:09;9.75;;;3.25;;
64500;SDS011;50874;24.150;-110.320;2023-07-08T15:22:42;8.55;;;2.78;;
64500;SDS011;50874;24.150;-110.320;2023-07-08T15:25:13;6.68;;;2.65;;
64500;SDS011;50874;24.150;-110.320;2023-07-08T15:27:45;7.88;;;3.20;;
64500;SDS011;50874;24.150;-110.320;2023-07-08T15:30:20;6.20;;;3.00;;